Time;durP1;ratioP1;P1;durP2;ratioP2;P2;SDS_P1;SDS_P2;PMS_P1;PMS_P2;Temp;Humidity;BMP_temperature;BMP_pressure;BME280_temperature;BME280_humidity;BME280_pressure;Samples;Min_cycle;Max_cycle;Signal;HPM_P1;HPM_P2
2023/09/02 00:00:15;;;;;;;;;;;;;;;21.56;27.80;98246.03;5057380;28;828;-78
2023/09/02 00:02:42;;;;;;;;;;;;;;;21.67;27.74;98245.81;5039582;28;981;-78
2023/09/02 00:05:07;;;;;;;;;;;;;;;21.70;27.50;98250.56;5057864;28;1020;-78
2023/09/02 00:07:33;;;;;;;;;;;;;;;21.66;27.49;98247.03;5058012;28;746;-77
2023/09/02 00:09:58;;;;;;;;;;;;;;;21.56;27.71;98251.72;5057836;28;1910;-78
2023/09/02 00:12:24;;;;;;;;;;;;;;;21.96;26.92;98250.78;5057831;28;923;-78
2023/09/02 00:14:50;;;;;;;;;;;;;;;21.74;27.48;98256.94;5056863;28;949;-78
2023/09/02 00:17:15;;;;;;;;;;;;;;;21.74;27.44;98247.66;5058203;28;861;-78
2023/09/02 00:19:43;;;;;;;;;;;;;;;21.66;27.53;98249.06;5056473;28;845;-78
2023/09/02 00:22:08;;;;;;;;;;;;;;;21.64;27.48;98245.88;5057138;28;1099;-78
2023/09/02 00:24:34;;;;;;;;;;;;;;;21.94;27.38;98253.28;5054648;28;1317;-78
2023/09/02 00:26:59;;;;;;;;;;;;;;;22.02;26.85;98249.00;5038915;28;868;-78
2023/09/02 00:29:25;;;;;;;;;;;;;;;21.96;27.06;98248.75;5055315;28;1906;-78
2023/09/02 00:31:51;;;;;;;;;;;;;;;22.11;26.94;98252.06;5039107;28;1098;-78
2023/09/02 00:34:16;;;;;;;;;;;;;;;21.98;26.92;98245.50;5038658;28;1295;-78
2023/09/02 00:36:42;;;;;;;;;;;;;;;21.69;27.29;98245.34;5054942;28;964;-78
2023/09/02 00:39:07;;;;;;;;;;;;;;;21.83;27.25;98243.00;5038489;28;1246;-78
2023/09/02 00:41:37;;;;;;;;;;;;;;;21.81;27.14;98236.97;5015235;28;1256;-78
2023/09/02 00:44:03;;;;;;;;;;;;;;;21.70;27.42;98249.78;4998966;28;1489;-78
2023/09/02 00:46:28;;;;;;;;;;;;;;;21.51;27.89;98235.25;4999053;28;748;-78
2023/09/02 00:48:54;;;;;;;;;;;;;;;21.81;27.20;98248.31;4998956;28;2037;-78
2023/09/02 00:51:19;;;;;;;;;;;;;;;22.05;27.01;98237.59;4999117;28;712;-78
2023/09/02 00:53:45;;;;;;;;;;;;;;;21.92;27.06;98244.44;4966500;28;1141;-79
2023/09/02 00:56:11;;;;;;;;;;;;;;;21.95;27.30;98249.19;4982718;28;1116;-78
2023/09/02 00:58:37;;;;;;;;;;;;;;;21.93;27.00;98251.69;4998900;28;883;-78
2023/09/02 01:01:03;;;;;;;;;;;;;;;21.68;27.48;98241.72;5000561;28;990;-78
2023/09/02 01:03:29;;;;;;;;;;;;;;;21.68;27.74;98244.56;5018152;28;830;-78
2023/09/02 01:05:54;;;;;;;;;;;;;;;22.11;27.01;98240.72;5018320;28;1240;-78
2023/09/02 01:08:20;;;;;;;;;;;;;;;21.53;27.89;98240.47;5018068;28;1922;-78
2023/09/02 01:10:46;;;;;;;;;;;;;;;21.53;27.99;98246.13;5018098;28;1346;-78
2023/09/02 01:13:11;;;;;;;;;;;;;;;21.79;27.43;98247.94;5018144;28;931;-78
2023/09/02 01:15:37;;;;;;;;;;;;;;;21.67;27.46;98234.47;5018314;28;751;-78
2023/09/02 01:18:03;;;;;;;;;;;;;;;21.85;27.40;98249.00;5020810;28;988;-78
2023/09/02 01:20:33;;;;;;;;;;;;;;;21.83;27.16;98248.66;5072483;28;818;-78
2023/09/02 01:23:09;;;;;;;;;;;;;;;21.80;27.31;98249.53;5055626;28;1138;-78
2023/09/02 01:25:37;;;;;;;;;;;;;;;21.66;27.50;98244.22;5055712;28;1359;-78
2023/09/02 01:28:17;;;;;;;;;;;;;;;21.65;27.69;98247.47;5054603;28;1891;-77
2023/09/02 01:30:43;;;;;;;;;;;;;;;21.84;27.14;98241.75;5021701;28;1369;-78
2023/09/02 01:33:08;;;;;;;;;;;;;;;21.73;27.31;98249.69;5037780;28;1163;-78
2023/09/02 01:35:34;;;;;;;;;;;;;;;21.90;27.23;98246.88;5021463;28;1112;-78
2023/09/02 01:38:00;;;;;;;;;;;;;;;21.84;27.17;98246.63;5058233;28;1030;-78
2023/09/02 01:40:26;;;;;;;;;;;;;;;21.95;27.08;98254.84;5041536;28;1213;-78
2023/09/02 01:42:53;;;;;;;;;;;;;;;21.98;26.91;98251.94;5058190;28;865;-78
2023/09/02 01:45:19;;;;;;;;;;;;;;;21.84;27.25;98255.13;5025231;28;1178;-78
2023/09/02 01:47:47;;;;;;;;;;;;;;;21.61;27.62;98252.44;5025227;28;1335;-77
2023/09/02 01:50:13;;;;;;;;;;;;;;;21.64;27.55;98257.19;5041435;28;1226;-78
2023/09/02 01:52:39;;;;;;;;;;;;;;;21.89;27.09;98250.97;5041661;28;1652;-77
2023/09/02 01:55:05;;;;;;;;;;;;;;;22.07;26.88;98260.63;5025142;28;1221;-78
2023/09/02 01:57:32;;;;;;;;;;;;;;;21.89;26.93;98251.75;5041551;28;1066;-77
2023/09/02 01:59:57;;;;;;;;;;;;;;;21.61;27.42;98258.91;5041483;28;1272;-78
2023/09/02 02:02:23;;;;;;;;;;;;;;;21.70;27.22;98259.06;5041416;28;1187;-77
2023/09/02 02:04:50;;;;;;;;;;;;;;;21.62;27.54;98254.03;5041096;28;978;-79
2023/09/02 02:07:16;;;;;;;;;;;;;;;21.75;27.18;98252.09;5041423;28;1523;-77
2023/09/02 02:09:50;;;;;;;;;;;;;;;21.88;26.80;98253.00;5040947;28;1914;-78
2023/09/02 02:12:16;;;;;;;;;;;;;;;21.61;27.49;98250.41;5041358;28;1080;-78
2023/09/02 02:14:42;;;;;;;;;;;;;;;21.87;27.08;98254.25;5041460;28;869;-78
2023/09/02 02:17:08;;;;;;;;;;;;;;;21.87;26.95;98253.44;5041503;28;1104;-78
2023/09/02 02:19:34;;;;;;;;;;;;;;;21.90;27.04;98250.50;5041037;28;1146;-78
2023/09/02 02:22:00;;;;;;;;;;;;;;;21.77;27.00;98250.41;5041094;28;1153;-78
2023/09/02 02:24:25;;;;;;;;;;;;;;;21.71;27.38;98252.19;5017647;28;1142;-77
2023/09/02 02:26:51;;;;;;;;;;;;;;;21.78;27.02;98242.72;5017721;28;984;-78
2023/09/02 02:29:17;;;;;;;;;;;;;;;21.81;27.21;98239.81;5017636;28;1918;-78
2023/09/02 02:31:42;;;;;;;;;;;;;;;21.98;27.03;98246.28;5014056;28;980;-78
2023/09/02 02:34:08;;;;;;;;;;;;;;;21.81;27.25;98245.47;5001840;28;938;-77
2023/09/02 02:36:33;;;;;;;;;;;;;;;21.98;27.13;98237.00;5001225;28;935;-77
2023/09/02 02:38:59;;;;;;;;;;;;;;;21.83;27.40;98243.00;5001469;28;1065;-77
2023/09/02 02:41:25;;;;;;;;;;;;;;;21.75;27.41;98235.88;5017848;28;1266;-77
2023/09/02 02:43:50;;;;;;;;;;;;;;;21.79;27.31;98242.28;5017473;28;1184;-78
2023/09/02 02:46:16;;;;;;;;;;;;;;;21.81;27.29;98234.16;5001276;28;1123;-78
2023/09/02 02:48:41;;;;;;;;;;;;;;;21.58;27.78;98242.78;5016789;28;1971;-78
2023/09/02 02:51:07;;;;;;;;;;;;;;;21.76;27.29;98246.00;5017559;28;1190;-78
2023/09/02 02:53:34;;;;;;;;;;;;;;;21.82;27.32;98244.22;5016966;28;1382;-78
2023/09/02 02:56:02;;;;;;;;;;;;;;;21.68;27.60;98238.91;5002323;28;1070;-79
2023/09/02 02:58:29;;;;;;;;;;;;;;;21.93;27.18;98246.81;4997537;28;1139;-78
2023/09/02 03:01:21;;;;;;;;;;;;;;;21.77;27.43;98250.41;4981533;28;1155;-78
2023/09/02 03:03:47;;;;;;;;;;;;;;;21.87;27.16;98253.44;4957719;29;1309;-78
2023/09/02 03:06:17;;;;;;;;;;;;;;;21.61;27.66;98252.44;4939414;29;1239;-78
2023/09/02 03:08:43;;;;;;;;;;;;;;;21.82;27.25;98246.28;4942684;29;1904;-77
2023/09/02 03:11:09;;;;;;;;;;;;;;;21.62;27.43;98260.47;4926853;29;1195;-78
2023/09/02 03:13:35;;;;;;;;;;;;;;;22.02;27.00;98261.16;4977633;28;1349;-78
2023/09/02 03:16:09;;;;;;;;;;;;;;;21.98;27.00;98256.81;4961909;28;1212;-78
2023/09/02 03:18:34;;;;;;;;;;;;;;;21.70;27.48;98261.91;4961538;28;1282;-78
2023/09/02 03:21:02;;;;;;;;;;;;;;;21.70;27.58;98264.72;4977878;28;1163;-78
2023/09/02 03:23:27;;;;;;;;;;;;;;;22.05;26.83;98270.81;4961877;28;922;-78
2023/09/02 03:25:53;;;;;;;;;;;;;;;21.84;27.30;98264.41;4961594;28;1292;-77
2023/09/02 03:28:19;;;;;;;;;;;;;;;22.11;27.08;98263.41;4924765;29;2081;-78
2023/09/02 03:30:45;;;;;;;;;;;;;;;21.59;27.26;98270.63;4926638;29;1122;-79
2023/09/02 03:33:14;;;;;;;;;;;;;;;21.88;26.92;98272.03;4941719;29;2139;-79
2023/09/02 03:35:41;;;;;;;;;;;;;;;21.68;27.39;98278.53;4939774;29;2199;-79
2023/09/02 03:38:06;;;;;;;;;;;;;;;21.85;27.21;98271.66;4922584;29;1685;-79
2023/09/02 03:40:32;;;;;;;;;;;;;;;22.00;26.90;98274.16;4967497;28;1077;-79
2023/09/02 03:42:58;;;;;;;;;;;;;;;21.84;26.95;98281.41;4999757;28;977;-80
2023/09/02 03:45:24;;;;;;;;;;;;;;;21.73;27.24;98272.34;4999967;28;1103;-79
2023/09/02 03:47:51;;;;;;;;;;;;;;;21.70;27.16;98278.09;4999950;28;1169;-79
2023/09/02 03:50:22;;;;;;;;;;;;;;;21.68;27.37;98280.56;5015991;28;1914;-79
2023/09/02 03:52:48;;;;;;;;;;;;;;;21.54;27.21;98281.69;5031713;28;1576;-80
2023/09/02 03:55:13;;;;;;;;;;;;;;;21.63;27.37;98279.06;4999446;28;1317;-79
2023/09/02 03:57:39;;;;;;;;;;;;;;;21.70;27.29;98290.22;5015994;28;1115;-79
2023/09/02 04:00:06;;;;;;;;;;;;;;;21.67;27.47;98285.44;5031490;28;1154;-79
2023/09/02 04:02:41;;;;;;;;;;;;;;;21.64;27.20;98289.16;5015371;28;1320;-79
2023/09/02 04:05:07;;;;;;;;;;;;;;;21.82;26.91;98283.09;5029647;28;1392;-79
2023/09/02 04:07:33;;;;;;;;;;;;;;;21.74;27.18;98288.09;5032590;28;1115;-79
2023/09/02 04:09:58;;;;;;;;;;;;;;;21.71;27.13;98289.00;5015627;28;1906;-78
2023/09/02 04:12:24;;;;;;;;;;;;;;;21.70;27.41;98293.03;5032580;28;1076;-79
2023/09/02 04:14:50;;;;;;;;;;;;;;;21.82;27.15;98292.38;5015603;28;1122;-79
2023/09/02 04:17:16;;;;;;;;;;;;;;;21.68;27.16;98291.91;5015334;28;1408;-79
2023/09/02 04:19:43;;;;;;;;;;;;;;;21.65;27.30;98284.28;4999486;28;1194;-79
2023/09/02 04:22:08;;;;;;;;;;;;;;;21.95;26.86;98297.34;5015808;28;864;-79
2023/09/02 04:24:34;;;;;;;;;;;;;;;21.87;27.33;98301.59;4999366;28;1148;-79
2023/09/02 04:27:01;;;;;;;;;;;;;;;21.70;27.34;98295.88;5015691;28;1089;-79
2023/09/02 04:29:26;;;;;;;;;;;;;;;21.70;27.42;98295.88;5005761;28;1906;-79
2023/09/02 04:31:53;;;;;;;;;;;;;;;21.77;27.12;98292.91;5022341;28;1710;-79
2023/09/02 04:34:22;;;;;;;;;;;;;;;21.49;27.98;98297.16;5040010;28;1150;-79
2023/09/02 04:36:49;;;;;;;;;;;;;;;22.00;26.92;98286.28;5056130;28;1130;-78
2023/09/02 04:39:16;;;;;;;;;;;;;;;21.59;28.00;98295.31;5056384;28;1131;-76
2023/09/02 04:41:41;;;;;;;;;;;;;;;21.75;27.58;98298.19;5039843;28;1158;-77
2023/09/02 04:44:07;;;;;;;;;;;;;;;21.71;27.61;98296.69;5039298;28;1131;-77
2023/09/02 04:46:33;;;;;;;;;;;;;;;21.45;28.01;98296.44;5039022;28;2368;-76
2023/09/02 04:48:58;;;;;;;;;;;;;;;21.70;27.62;98300.75;5020093;28;1970;-77
2023/09/02 04:51:24;;;;;;;;;;;;;;;21.33;28.35;98297.09;5056124;28;1289;-76
2023/09/02 04:53:49;;;;;;;;;;;;;;;21.75;27.72;98297.41;5055902;28;1286;-76
2023/09/02 04:56:15;;;;;;;;;;;;;;;21.85;27.46;98297.16;5055648;28;822;-77
2023/09/02 04:58:41;;;;;;;;;;;;;;;21.75;27.58;98301.03;5055946;28;1247;-76
2023/09/02 05:01:11;;;;;;;;;;;;;;;21.88;27.53;98300.38;5055938;28;1220;-76
2023/09/02 05:03:39;;;;;;;;;;;;;;;21.99;27.17;98300.91;5040049;28;1342;-76
2023/09/02 05:06:05;;;;;;;;;;;;;;;21.57;27.78;98300.63;5052429;28;1225;-76
2023/09/02 05:08:33;;;;;;;;;;;;;;;21.78;27.80;98297.34;5015086;28;1906;-77
2023/09/02 05:11:00;;;;;;;;;;;;;;;21.51;28.21;98305.22;4982125;28;1115;-77
2023/09/02 05:13:25;;;;;;;;;;;;;;;21.49;28.22;98302.81;5015008;28;1306;-76
2023/09/02 05:15:51;;;;;;;;;;;;;;;21.58;28.19;98296.56;5015146;28;1229;-76
2023/09/02 05:18:17;;;;;;;;;;;;;;;21.88;27.75;98295.50;4966995;28;1339;-76
2023/09/02 05:20:43;;;;;;;;;;;;;;;21.82;27.76;98298.06;4993533;28;1310;-76
2023/09/02 05:23:09;;;;;;;;;;;;;;;21.82;27.57;98303.72;4994070;28;1378;-76
2023/09/02 05:25:35;;;;;;;;;;;;;;;21.72;28.15;98301.13;4995007;28;1463;-76
2023/09/02 05:28:01;;;;;;;;;;;;;;;21.55;28.48;98303.91;4978791;28;1997;-76
2023/09/02 05:30:28;;;;;;;;;;;;;;;21.72;27.94;98307.59;4975836;28;1147;-76
2023/09/02 05:32:53;;;;;;;;;;;;;;;21.98;27.63;98305.00;4975303;28;996;-76
2023/09/02 05:35:19;;;;;;;;;;;;;;;21.96;27.92;98302.56;4975876;28;934;-76
2023/09/02 05:37:44;;;;;;;;;;;;;;;21.83;27.84;98293.97;4974488;28;1994;-76
2023/09/02 05:40:10;;;;;;;;;;;;;;;21.98;27.89;98299.31;4990553;28;891;-76
2023/09/02 05:42:36;;;;;;;;;;;;;;;21.50;28.58;98300.78;4994843;28;1222;-77
2023/09/02 05:45:02;;;;;;;;;;;;;;;21.73;28.27;98303.50;4994825;28;897;-76
2023/09/02 05:47:27;;;;;;;;;;;;;;;21.75;28.17;98300.22;4995108;28;1354;-76
2023/09/02 05:49:53;;;;;;;;;;;;;;;21.87;28.07;98304.44;5007970;28;1983;-76
2023/09/02 05:52:18;;;;;;;;;;;;;;;21.94;28.01;98295.75;5017519;28;1303;-76
2023/09/02 05:54:44;;;;;;;;;;;;;;;22.13;27.48;98308.31;5016831;28;1714;-76
2023/09/02 05:57:09;;;;;;;;;;;;;;;22.02;27.92;98300.00;5001226;28;964;-76
2023/09/02 05:59:35;;;;;;;;;;;;;;;22.05;27.56;98299.13;5017901;28;891;-76
2023/09/02 06:02:00;;;;;;;;;;;;;;;21.98;28.12;98305.78;5044712;28;1265;-76
2023/09/02 06:04:26;;;;;;;;;;;;;;;21.86;27.95;98309.28;5056100;28;810;-77
2023/09/02 06:06:52;;;;;;;;;;;;;;;22.08;27.67;98309.59;5054871;28;905;-76
2023/09/02 06:09:17;;;;;;;;;;;;;;;21.93;28.19;98314.00;5021068;28;1910;-77
2023/09/02 06:11:43;;;;;;;;;;;;;;;21.83;28.23;98310.97;5038542;28;1138;-76
2023/09/02 06:14:08;;;;;;;;;;;;;;;21.61;28.51;98321.19;5037903;28;999;-76
2023/09/02 06:16:34;;;;;;;;;;;;;;;21.64;28.53;98316.66;5017825;28;1258;-77
2023/09/02 06:19:00;;;;;;;;;;;;;;;21.69;28.67;98321.81;5001327;28;1045;-77
2023/09/02 06:21:25;;;;;;;;;;;;;;;21.98;27.89;98317.13;5001279;28;1250;-76
2023/09/02 06:23:51;;;;;;;;;;;;;;;22.08;28.06;98320.94;5017099;28;1335;-77
2023/09/02 06:26:16;;;;;;;;;;;;;;;21.80;28.51;98317.50;5001247;28;1222;-76
2023/09/02 06:28:42;;;;;;;;;;;;;;;22.10;28.14;98330.63;5017831;28;1902;-76
2023/09/02 06:31:08;;;;;;;;;;;;;;;21.92;28.21;98335.09;5001198;28;887;-76
2023/09/02 06:33:34;;;;;;;;;;;;;;;21.96;28.21;98332.94;4985113;28;1218;-76
2023/09/02 06:35:59;;;;;;;;;;;;;;;21.83;28.42;98330.81;5009302;28;1404;-77
2023/09/02 06:38:25;;;;;;;;;;;;;;;21.72;28.45;98327.41;5020955;28;871;-76
2023/09/02 06:40:50;;;;;;;;;;;;;;;21.89;28.57;98336.75;5020509;28;941;-77
2023/09/02 06:43:16;;;;;;;;;;;;;;;21.58;28.88;98337.00;5020812;28;910;-77
2023/09/02 06:45:41;;;;;;;;;;;;;;;21.99;28.47;98335.72;5020572;28;882;-76
2023/09/02 06:48:08;;;;;;;;;;;;;;;22.10;28.01;98338.28;5036914;28;1914;-76
2023/09/02 06:50:33;;;;;;;;;;;;;;;21.85;28.58;98342.47;5035212;28;1473;-77
2023/09/02 06:52:59;;;;;;;;;;;;;;;22.03;28.30;98335.63;5017292;28;1131;-76
2023/09/02 06:55:24;;;;;;;;;;;;;;;21.93;28.60;98342.34;5017278;28;891;-77
2023/09/02 06:57:50;;;;;;;;;;;;;;;22.16;27.97;98333.72;5001054;28;1230;-76
2023/09/02 07:00:16;;;;;;;;;;;;;;;21.74;28.95;98341.91;5016821;28;1075;-76
2023/09/02 07:02:42;;;;;;;;;;;;;;;21.59;29.19;98343.47;5000741;28;902;-77
2023/09/02 07:05:08;;;;;;;;;;;;;;;22.05;28.48;98338.81;5015645;28;1394;-76
2023/09/02 07:07:33;;;;;;;;;;;;;;;21.85;28.69;98336.81;5000705;28;1309;-77
2023/09/02 07:09:59;;;;;;;;;;;;;;;22.05;28.33;98338.81;5016858;28;1910;-76
2023/09/02 07:12:24;;;;;;;;;;;;;;;22.16;28.43;98339.38;5036788;28;939;-76
2023/09/02 07:14:50;;;;;;;;;;;;;;;22.10;28.60;98341.13;5020181;28;1093;-76
2023/09/02 07:17:16;;;;;;;;;;;;;;;21.98;28.83;98333.31;5020255;28;1337;-76
2023/09/02 07:19:41;;;;;;;;;;;;;;;22.33;27.96;98338.19;5018972;28;1602;-76
2023/09/02 07:22:07;;;;;;;;;;;;;;;22.09;28.63;98342.38;5036435;28;977;-77
2023/09/02 07:24:32;;;;;;;;;;;;;;;22.07;28.82;98336.31;5034786;28;1261;-76
2023/09/02 07:26:58;;;;;;;;;;;;;;;21.90;29.01;98337.53;5057026;28;878;-77
2023/09/02 07:29:24;;;;;;;;;;;;;;;22.18;28.44;98336.94;5039523;28;1950;-76
2023/09/02 07:31:49;;;;;;;;;;;;;;;22.20;28.45;98340.09;5039380;28;910;-76
2023/09/02 07:34:15;;;;;;;;;;;;;;;21.85;29.02;98325.47;5039101;28;1717;-76
2023/09/02 07:36:41;;;;;;;;;;;;;;;22.21;28.55;98338.88;5023256;28;977;-76
2023/09/02 07:39:07;;;;;;;;;;;;;;;22.06;28.78;98334.72;5039289;28;972;-76
2023/09/02 07:41:32;;;;;;;;;;;;;;;22.15;28.48;98331.34;5019670;28;1087;-77
2023/09/02 07:43:58;;;;;;;;;;;;;;;21.90;28.97;98331.88;5003229;28;1009;-76
2023/09/02 07:46:23;;;;;;;;;;;;;;;22.12;28.54;98337.88;5036237;28;965;-76
2023/09/02 07:48:50;;;;;;;;;;;;;;;21.91;29.21;98334.25;5019200;28;1918;-77
2023/09/02 07:51:16;;;;;;;;;;;;;;;22.05;28.75;98333.16;5019461;28;997;-76
2023/09/02 07:53:42;;;;;;;;;;;;;;;21.81;29.27;98324.78;5003021;28;1349;-77
2023/09/02 07:56:07;;;;;;;;;;;;;;;21.97;28.87;98331.72;5003220;28;1220;-76
2023/09/02 07:58:33;;;;;;;;;;;;;;;22.21;28.46;98336.03;5003325;28;928;-76
2023/09/02 08:00:58;;;;;;;;;;;;;;;22.45;28.40;98333.03;5019541;28;967;-77
2023/09/02 08:03:24;;;;;;;;;;;;;;;22.21;28.62;98330.34;5018559;28;1513;-77
2023/09/02 08:05:50;;;;;;;;;;;;;;;21.99;29.30;98334.91;5019108;28;1513;-76
2023/09/02 08:08:15;;;;;;;;;;;;;;;22.19;28.96;98327.19;4999025;28;1984;-76
2023/09/02 08:10:41;;;;;;;;;;;;;;;22.48;28.38;98329.31;4999232;28;1068;-76
2023/09/02 08:13:07;;;;;;;;;;;;;;;22.17;28.64;98335.31;5028866;28;929;-76
2023/09/02 08:15:32;;;;;;;;;;;;;;;22.18;28.96;98331.25;5038736;28;984;-76
2023/09/02 08:17:58;;;;;;;;;;;;;;;22.23;28.95;98333.56;5039214;28;901;-77
2023/09/02 08:20:25;;;;;;;;;;;;;;;22.38;28.66;98324.69;5055093;28;1588;-76
2023/09/02 08:22:50;;;;;;;;;;;;;;;22.16;28.73;98333.72;5038847;28;1037;-76
2023/09/02 08:25:16;;;;;;;;;;;;;;;22.20;28.97;98328.78;5038548;28;807;-77
2023/09/02 08:27:45;;;;;;;;;;;;;;;22.38;28.46;98328.31;5038623;28;1124;-77
2023/09/02 08:30:11;;;;;;;;;;;;;;;22.21;29.05;98330.34;5055021;28;1910;-76
2023/09/02 08:32:38;;;;;;;;;;;;;;;21.94;29.34;98326.94;5039011;28;1012;-77
2023/09/02 08:35:04;;;;;;;;;;;;;;;21.94;29.40;98330.56;5054839;28;1403;-76
2023/09/02 08:37:31;;;;;;;;;;;;;;;22.50;28.58;98336.13;5022174;28;1384;-76
2023/09/02 08:39:56;;;;;;;;;;;;;;;22.11;29.26;98325.75;5038510;28;951;-76
2023/09/02 08:42:22;;;;;;;;;;;;;;;22.38;28.73;98338.88;5038898;28;952;-77
2023/09/02 08:44:48;;;;;;;;;;;;;;;22.03;29.00;98335.63;5037816;28;1442;-76
2023/09/02 08:47:17;;;;;;;;;;;;;;;21.88;29.51;98328.69;5056378;28;898;-77
2023/09/02 08:49:42;;;;;;;;;;;;;;;22.03;29.04;98329.97;5057262;28;1910;-76
2023/09/02 08:52:08;;;;;;;;;;;;;;;22.06;29.14;98334.72;5056395;28;952;-76
2023/09/02 08:54:34;;;;;;;;;;;;;;;22.10;29.15;98335.47;5037802;28;1341;-77
2023/09/02 08:57:00;;;;;;;;;;;;;;;22.09;28.95;98336.69;5056269;28;912;-76
2023/09/02 08:59:26;;;;;;;;;;;;;;;22.26;28.62;98332.66;5039426;28;845;-76
2023/09/02 09:01:51;;;;;;;;;;;;;;;22.31;28.50;98329.31;5057249;28;809;-76
2023/09/02 09:04:17;;;;;;;;;;;;;;;22.21;29.04;98330.34;5055665;28;1302;-76
2023/09/02 09:06:43;;;;;;;;;;;;;;;22.47;28.39;98336.22;5039471;28;1823;-76
2023/09/02 09:09:09;;;;;;;;;;;;;;;22.38;28.69;98334.00;5055823;28;1997;-76
2023/09/02 09:11:36;;;;;;;;;;;;;;;21.95;29.27;98326.47;5039368;28;1206;-76
2023/09/02 09:14:02;;;;;;;;;;;;;;;22.23;28.91;98327.91;5054661;28;1408;-76
2023/09/02 09:16:33;;;;;;;;;;;;;;;22.15;29.00;98332.13;5039456;28;900;-76
2023/09/02 09:19:01;;;;;;;;;;;;;;;22.23;28.69;98333.56;5039103;28;1301;-76
2023/09/02 09:21:27;;;;;;;;;;;;;;;22.45;28.50;98333.03;5072486;28;890;-77
2023/09/02 09:23:52;;;;;;;;;;;;;;;22.43;28.67;98327.00;5056952;28;878;-77
2023/09/02 09:26:19;;;;;;;;;;;;;;;22.29;28.87;98337.47;5034800;28;1220;-77
2023/09/02 09:28:51;;;;;;;;;;;;;;;22.24;28.92;98323.81;5018792;28;1910;-76
2023/09/02 09:31:17;;;;;;;;;;;;;;;22.42;28.46;98316.91;5018272;28;945;-77
2023/09/02 09:33:49;;;;;;;;;;;;;;;22.34;28.78;98322.75;5033292;28;1462;-76
2023/09/02 09:36:17;;;;;;;;;;;;;;;22.51;28.39;98319.91;5018432;28;966;-76
2023/09/02 09:38:42;;;;;;;;;;;;;;;22.28;28.67;98324.53;5018091;28;947;-77
2023/09/02 09:41:08;;;;;;;;;;;;;;;22.42;28.71;98311.22;5035125;28;1000;-77
2023/09/02 09:43:33;;;;;;;;;;;;;;;22.11;28.86;98325.75;5018427;28;826;-76
2023/09/02 09:45:59;;;;;;;;;;;;;;;22.11;29.25;98311.56;5018271;28;1009;-76
2023/09/02 09:48:25;;;;;;;;;;;;;;;22.07;29.44;98313.66;5013829;28;1918;-76
2023/09/02 09:50:51;;;;;;;;;;;;;;;21.94;29.43;98322.06;5014770;28;953;-76
2023/09/02 09:53:17;;;;;;;;;;;;;;;22.24;28.90;98323.03;5014950;28;823;-76
2023/09/02 09:55:42;;;;;;;;;;;;;;;22.12;29.34;98315.19;5011303;28;1492;-76
2023/09/02 09:58:08;;;;;;;;;;;;;;;22.27;28.81;98307.94;5034695;28;1006;-76
2023/09/02 10:00:33;;;;;;;;;;;;;;;22.13;29.26;98311.94;5058470;28;910;-76
2023/09/02 10:02:59;;;;;;;;;;;;;;;22.09;29.08;98314.81;5041651;28;819;-76
2023/09/02 10:05:25;;;;;;;;;;;;;;;22.27;29.15;98317.25;5025032;28;1322;-77
2023/09/02 10:08:17;;;;;;;;;;;;;;;22.26;29.26;98312.03;5041681;28;969;-77
2023/09/02 10:10:43;;;;;;;;;;;;;;;22.10;29.43;98312.78;4978603;28;1361;-77
2023/09/02 10:13:08;;;;;;;;;;;;;;;22.14;29.51;98319.19;4979063;28;1040;-76
2023/09/02 10:15:34;;;;;;;;;;;;;;;22.31;29.00;98317.16;4979054;28;1088;-76
2023/09/02 10:18:00;;;;;;;;;;;;;;;22.48;28.74;98315.13;4979122;28;947;-76
2023/09/02 10:20:27;;;;;;;;;;;;;;;22.16;29.12;98311.03;4962941;28;869;-76
2023/09/02 10:22:53;;;;;;;;;;;;;;;22.44;28.75;98326.56;4979623;28;1057;-77
2023/09/02 10:25:24;;;;;;;;;;;;;;;22.25;29.20;98319.75;4977798;28;1378;-76
2023/09/02 10:28:05;;;;;;;;;;;;;;;22.29;29.01;98309.13;4978753;28;961;-76
2023/09/02 10:30:32;;;;;;;;;;;;;;;22.10;29.30;98324.13;4978837;28;2025;-77
2023/09/02 10:33:05;;;;;;;;;;;;;;;22.28;29.25;98329.41;4979269;28;968;-76
2023/09/02 10:35:31;;;;;;;;;;;;;;;22.40;29.12;98313.72;4979012;28;1007;-77
2023/09/02 10:37:58;;;;;;;;;;;;;;;22.19;29.24;98315.84;4959572;29;885;-77
2023/09/02 10:40:24;;;;;;;;;;;;;;;22.18;29.11;98319.91;4958760;29;1407;-77
2023/09/02 10:42:49;;;;;;;;;;;;;;;21.98;29.48;98307.81;4959440;29;977;-76
2023/09/02 10:45:18;;;;;;;;;;;;;;;22.22;29.19;98317.78;4959662;28;1208;-76
2023/09/02 10:47:44;;;;;;;;;;;;;;;22.06;29.42;98318.53;4951547;29;987;-77
2023/09/02 10:50:10;;;;;;;;;;;;;;;21.97;29.64;98326.06;4958981;28;1906;-77
2023/09/02 10:52:35;;;;;;;;;;;;;;;21.93;29.71;98323.31;4943416;29;989;-76
2023/09/02 10:55:04;;;;;;;;;;;;;;;22.28;29.08;98324.53;4965549;28;1357;-77
2023/09/02 10:57:30;;;;;;;;;;;;;;;22.49;28.68;98319.59;4978456;28;866;-76
2023/09/02 11:00:14;;;;;;;;;;;;;;;22.48;28.73;98315.13;4978427;28;898;-76
2023/09/02 11:02:40;;;;;;;;;;;;;;;22.45;28.77;98316.03;4978341;28;874;-77
2023/09/02 11:05:06;;;;;;;;;;;;;;;22.14;29.39;98316.38;4962126;28;839;-77
2023/09/02 11:07:33;;;;;;;;;;;;;;;22.29;29.00;98320.47;4977819;28;960;-76
2023/09/02 11:09:59;;;;;;;;;;;;;;;22.44;28.84;98309.56;4961656;28;1993;-76
2023/09/02 11:12:26;;;;;;;;;;;;;;;22.01;29.40;98316.22;4961901;28;993;-76
2023/09/02 11:15:06;;;;;;;;;;;;;;;22.42;28.74;98320.53;4971320;28;1003;-77
2023/09/02 11:17:32;;;;;;;;;;;;;;;22.22;29.30;98309.28;5017421;28;1007;-76
2023/09/02 11:20:01;;;;;;;;;;;;;;;22.11;29.41;98314.41;5021418;28;886;-76
2023/09/02 11:22:45;;;;;;;;;;;;;;;22.28;28.96;98318.88;5038396;28;1018;-76
2023/09/02 11:25:10;;;;;;;;;;;;;;;22.08;29.62;98315.28;5049378;28;1563;-76
2023/09/02 11:27:45;;;;;;;;;;;;;;;22.26;29.37;98320.53;5024879;28;1289;-76
2023/09/02 11:30:11;;;;;;;;;;;;;;;22.22;29.17;98308.47;5056395;28;1905;-75
2023/09/02 11:32:45;;;;;;;;;;;;;;;21.95;29.97;98308.69;5040289;28;965;-76
2023/09/02 11:35:11;;;;;;;;;;;;;;;22.43;29.25;98313.63;5058430;28;843;-76
2023/09/02 11:37:37;;;;;;;;;;;;;;;22.59;28.96;98316.47;5041103;28;1295;-77
2023/09/02 11:40:32;;;;;;;;;;;;;;;22.64;28.72;98323.66;5040779;28;1490;-77
2023/09/02 11:43:01;;;;;;;;;;;;;;;22.29;29.46;98331.78;5016098;28;1052;-77
2023/09/02 11:45:30;;;;;;;;;;;;;;;22.35;29.24;98323.56;4996385;28;1410;-76
2023/09/02 11:47:56;;;;;;;;;;;;;;;22.48;29.15;98327.25;5012752;28;1439;-76
2023/09/02 11:50:22;;;;;;;;;;;;;;;22.35;29.12;98324.34;4996962;28;1974;-76
2023/09/02 11:52:48;;;;;;;;;;;;;;;22.47;28.88;98319.22;4996856;28;1066;-77
2023/09/02 11:55:14;;;;;;;;;;;;;;;22.24;29.35;98329.50;4996730;28;862;-77
2023/09/02 11:57:40;;;;;;;;;;;;;;;22.35;28.94;98324.34;4997025;28;993;-77
2023/09/02 12:00:07;;;;;;;;;;;;;;;22.55;28.75;98326.31;5012963;28;1268;-76
2023/09/02 12:02:36;;;;;;;;;;;;;;;22.20;29.30;98328.78;5010107;28;1497;-76
2023/09/02 12:05:02;;;;;;;;;;;;;;;22.35;29.10;98313.00;4993103;28;1558;-76
2023/09/02 12:07:28;;;;;;;;;;;;;;;22.64;28.48;98312.31;4983821;28;1032;-76
2023/09/02 12:09:55;;;;;;;;;;;;;;;22.17;29.39;98318.31;4983319;28;1981;-76
2023/09/02 12:12:20;;;;;;;;;;;;;;;22.03;29.70;98312.97;5016433;28;918;-76
2023/09/02 12:14:47;;;;;;;;;;;;;;;22.21;29.39;98312.56;5000188;28;971;-76
2023/09/02 12:17:12;;;;;;;;;;;;;;;22.19;29.00;98315.84;4996166;28;976;-76
2023/09/02 12:19:38;;;;;;;;;;;;;;;22.41;29.11;98309.66;4978409;28;1884;-76
2023/09/02 12:22:03;;;;;;;;;;;;;;;22.08;29.53;98315.28;4980198;28;883;-76
2023/09/02 12:24:32;;;;;;;;;;;;;;;22.05;29.41;98316.94;4980141;28;1108;-76
2023/09/02 12:26:58;;;;;;;;;;;;;;;22.17;29.41;98318.31;4976685;28;910;-77
2023/09/02 12:29:24;;;;;;;;;;;;;;;22.36;28.79;98325.16;4977018;28;1986;-77
2023/09/02 12:31:59;;;;;;;;;;;;;;;22.27;29.02;98324.97;4976852;28;1173;-77
2023/09/02 12:34:25;;;;;;;;;;;;;;;22.05;29.44;98324.66;4987708;28;1442;-76
2023/09/02 12:36:50;;;;;;;;;;;;;;;21.97;29.75;98323.22;4993999;28;1331;-77
2023/09/02 12:39:25;;;;;;;;;;;;;;;22.21;28.98;98319.03;4995995;28;942;-76
2023/09/02 12:41:51;;;;;;;;;;;;;;;22.32;28.78;98313.88;4975997;28;1044;-76
2023/09/02 12:44:19;;;;;;;;;;;;;;;22.18;29.39;98317.09;4976605;28;888;-76
2023/09/02 12:46:45;;;;;;;;;;;;;;;22.04;29.46;98320.22;4960499;28;1148;-76
2023/09/02 12:49:11;;;;;;;;;;;;;;;21.98;29.66;98327.66;4961677;28;1906;-77
2023/09/02 12:51:37;;;;;;;;;;;;;;;22.05;29.58;98333.16;4993311;28;1345;-76
2023/09/02 12:54:11;;;;;;;;;;;;;;;22.15;29.31;98329.28;4994126;28;1089;-76
2023/09/02 12:56:37;;;;;;;;;;;;;;;22.28;29.03;98329.41;4995873;28;1042;-76